This is the latest recevied weather packets stored in our database for station/object N3WMC. If no packets are shown the sender has not sent any weather packets the latest 10 day(s).
| Time | Temp. | Humidity | Pressure | Rain* | Wind** | Luminosity | Snow |
|---|---|---|---|---|---|---|---|
| 1787879552 | 21.67° C | 92% | 1016 hPa | 0 mm | - | 0 W/m² | - |
| 1787879247 | 21.67° C | 92% | 1015.8 hPa | 0 mm | - | 0 W/m² | - |
| 1787878945 | 21.67° C | 91% | 1015.7 hPa | 0 mm | - | 0 W/m² | - |
| 1787878643 | 22.22° C | 91% | 1015.6 hPa | 0 mm | - | 0 W/m² | - |
| 1787878338 | 22.22° C | 91% | 1015.7 hPa | 0 mm | - | 0 W/m² | - |
| 1787878034 | 22.22° C | 90% | 1015.5 hPa | 0 mm | - | 0 W/m² | - |
| 1787877730 | 22.22° C | 90% | 1015.3 hPa | 0 mm | - | 0 W/m² | - |
| 1787877425 | 22.22° C | 91% | 1015.2 hPa | 0 mm | - | 0 W/m² | - |
| 1787877121 | 22.22° C | 92% | 1015.2 hPa | 0 mm | - | 0 W/m² | - |
| 1787876820 | 22.78° C | 91% | 1015.5 hPa | 0 mm | - | 0 W/m² | - |
| 1787876515 | 22.78° C | 90% | 1015.2 hPa | 0 mm | - | 0 W/m² | - |
| 1787876209 | 22.78° C | 89% | 1015.2 hPa | 0 mm | - | 0 W/m² | - |
| 1787875904 | 23.33° C | 88% | 1015.3 hPa | 0 mm | - | 1 W/m² | - |
| 1787875603 | 23.33° C | 86% | 1015.2 hPa | 0 mm | - | 1 W/m² | - |
| 1787875298 | 23.33° C | 85% | 1015 hPa | 0 mm | - | 2 W/m² | - |
| 1787874995 | 23.89° C | 85% | 1014.9 hPa | 0 mm | - | 2 W/m² | - |
| 1787874691 | 23.89° C | 84% | 1014.9 hPa | 0 mm | - | 2 W/m² | - |
| 1787874389 | 23.89° C | 83% | 1014.8 hPa | 0 mm | - | 5 W/m² | - |
| 1787874084 | 24.44° C | 81% | 1014.9 hPa | 0 mm | - | 7 W/m² | - |
| 1787873778 | 24.44° C | 81% | 1014.8 hPa | 0 mm | - | 9 W/m² | - |
| 1787873473 | 25° C | 79% | 1014.8 hPa | 0 mm | - | 12 W/m² | - |
| 1787873168 | 24.44° C | 81% | 1014.6 hPa | 0 mm | - | 16 W/m² | - |
| 1787872867 | 25° C | 77% | 1014.7 hPa | 0 mm | - | 18 W/m² | - |
| 1787872563 | 25° C | 77% | 1014.7 hPa | 0 mm | - | 20 W/m² | - |
| 1787872258 | 25.56° C | 76% | 1014.5 hPa | 0 mm | - | 22 W/m² | - |
* Rain latest hour (hover to see other rain measurements)
** Current wind speed in m/s (hover to see current wind gust speed)